sensor_id;sensor_type;location;lat;lon;timestamp;P1;durP1;ratioP1;P2;durP2;ratioP2
67712;SDS011;67640;55.784;49.138;2023-02-26T00:03:34;16.60;;;6.10;;
67712;SDS011;67640;55.784;49.138;2023-02-26T00:08:54;20.30;;;6.70;;
67712;SDS011;67640;55.784;49.138;2023-02-26T00:13:59;13.87;;;5.70;;
67712;SDS011;67640;55.784;49.138;2023-02-26T00:19:06;16.77;;;6.03;;
67712;SDS011;67640;55.784;49.138;2023-02-26T00:24:24;19.07;;;5.65;;
67712;SDS011;67640;55.784;49.138;2023-02-26T00:29:29;15.30;;;5.87;;
67712;SDS011;67640;55.784;49.138;2023-02-26T00:34:35;14.18;;;5.17;;
67712;SDS011;67640;55.784;49.138;2023-02-26T00:45:17;15.13;;;4.83;;
67712;SDS011;67640;55.784;49.138;2023-02-26T00:50:23;14.75;;;5.33;;
67712;SDS011;67640;55.784;49.138;2023-02-26T00:55:43;13.22;;;4.97;;
67712;SDS011;67640;55.784;49.138;2023-02-26T01:00:50;12.80;;;5.03;;
67712;SDS011;67640;55.784;49.138;2023-02-26T01:06:17;14.68;;;4.78;;
67712;SDS011;67640;55.784;49.138;2023-02-26T01:11:23;13.40;;;5.33;;
67712;SDS011;67640;55.784;49.138;2023-02-26T01:16:46;13.47;;;4.70;;
67712;SDS011;67640;55.784;49.138;2023-02-26T01:22:07;13.40;;;5.22;;
67712;SDS011;67640;55.784;49.138;2023-02-26T01:27:24;16.30;;;5.65;;
67712;SDS011;67640;55.784;49.138;2023-02-26T01:32:45;14.38;;;5.42;;
67712;SDS011;67640;55.784;49.138;2023-02-26T01:37:51;16.73;;;5.50;;
67712;SDS011;67640;55.784;49.138;2023-02-26T01:42:56;16.23;;;5.63;;
67712;SDS011;67640;55.784;49.138;2023-02-26T01:53:41;12.25;;;4.70;;
67712;SDS011;67640;55.784;49.138;2023-02-26T01:58:46;10.83;;;4.60;;
67712;SDS011;67640;55.784;49.138;2023-02-26T02:04:10;16.02;;;5.50;;
67712;SDS011;67640;55.784;49.138;2023-02-26T02:09:33;13.75;;;5.30;;
67712;SDS011;67640;55.784;49.138;2023-02-26T03:04:54;9.53;;;3.80;;
67712;SDS011;67640;55.784;49.138;2023-02-26T03:10:11;15.08;;;4.42;;
67712;SDS011;67640;55.784;49.138;2023-02-26T03:15:17;11.43;;;4.47;;
67712;SDS011;67640;55.784;49.138;2023-02-26T03:20:38;8.73;;;3.00;;
67712;SDS011;67640;55.784;49.138;2023-02-26T03:26:11;10.20;;;4.60;;
67712;SDS011;67640;55.784;49.138;2023-02-26T03:36:44;11.87;;;4.93;;
67712;SDS011;67640;55.784;49.138;2023-02-26T03:47:42;10.78;;;4.53;;
67712;SDS011;67640;55.784;49.138;2023-02-26T03:53:02;12.03;;;4.67;;
67712;SDS011;67640;55.784;49.138;2023-02-26T03:58:09;12.53;;;5.30;;
67712;SDS011;67640;55.784;49.138;2023-02-26T04:08:53;13.38;;;4.80;;
67712;SDS011;67640;55.784;49.138;2023-02-26T04:14:12;13.20;;;5.55;;
67712;SDS011;67640;55.784;49.138;2023-02-26T04:19:18;15.57;;;6.00;;
67712;SDS011;67640;55.784;49.138;2023-02-26T04:24:37;13.58;;;6.10;;
67712;SDS011;67640;55.784;49.138;2023-02-26T04:29:42;15.93;;;6.37;;
67712;SDS011;67640;55.784;49.138;2023-02-26T04:34:47;14.70;;;6.22;;
67712;SDS011;67640;55.784;49.138;2023-02-26T04:40:05;10.50;;;4.20;;
67712;SDS011;67640;55.784;49.138;2023-02-26T04:45:10;17.45;;;7.67;;
67712;SDS011;67640;55.784;49.138;2023-02-26T04:50:30;18.25;;;6.60;;
67712;SDS011;67640;55.784;49.138;2023-02-26T04:55:49;17.12;;;6.28;;
67712;SDS011;67640;55.784;49.138;2023-02-26T05:01:15;17.98;;;7.30;;
67712;SDS011;67640;55.784;49.138;2023-02-26T05:06:20;14.03;;;6.37;;
67712;SDS011;67640;55.784;49.138;2023-02-26T05:11:39;17.07;;;7.08;;
67712;SDS011;67640;55.784;49.138;2023-02-26T05:16:58;14.03;;;6.83;;
67712;SDS011;67640;55.784;49.138;2023-02-26T05:22:17;17.75;;;6.45;;
67712;SDS011;67640;55.784;49.138;2023-02-26T05:27:22;18.20;;;6.62;;
67712;SDS011;67640;55.784;49.138;2023-02-26T05:32:27;17.03;;;5.13;;
67712;SDS011;67640;55.784;49.138;2023-02-26T05:37:32;13.38;;;5.00;;
67712;SDS011;67640;55.784;49.138;2023-02-26T05:43:02;12.20;;;5.28;;
67712;SDS011;67640;55.784;49.138;2023-02-26T05:48:08;12.83;;;4.80;;
67712;SDS011;67640;55.784;49.138;2023-02-26T05:53:27;11.90;;;5.10;;
67712;SDS011;67640;55.784;49.138;2023-02-26T05:58:46;12.37;;;4.83;;
67712;SDS011;67640;55.784;49.138;2023-02-26T06:04:04;11.97;;;4.60;;
67712;SDS011;67640;55.784;49.138;2023-02-26T06:09:09;14.05;;;4.62;;
67712;SDS011;67640;55.784;49.138;2023-02-26T06:14:28;13.08;;;4.40;;
67712;SDS011;67640;55.784;49.138;2023-02-26T06:19:33;9.70;;;3.70;;
67712;SDS011;67640;55.784;49.138;2023-02-26T06:24:52;10.10;;;3.72;;
67712;SDS011;67640;55.784;49.138;2023-02-26T06:30:11;9.03;;;3.47;;
67712;SDS011;67640;55.784;49.138;2023-02-26T06:35:16;12.78;;;3.87;;
67712;SDS011;67640;55.784;49.138;2023-02-26T06:40:22;9.48;;;3.58;;
67712;SDS011;67640;55.784;49.138;2023-02-26T06:45:41;8.53;;;3.10;;
67712;SDS011;67640;55.784;49.138;2023-02-26T06:50:46;7.20;;;2.80;;
67712;SDS011;67640;55.784;49.138;2023-02-26T06:56:03;20.35;;;7.22;;
67712;SDS011;67640;55.784;49.138;2023-02-26T07:01:08;11.03;;;3.97;;
67712;SDS011;67640;55.784;49.138;2023-02-26T07:06:25;10.13;;;3.40;;
67712;SDS011;67640;55.784;49.138;2023-02-26T07:11:30;8.15;;;2.85;;
67712;SDS011;67640;55.784;49.138;2023-02-26T07:16:47;6.50;;;2.40;;
67712;SDS011;67640;55.784;49.138;2023-02-26T07:21:52;12.13;;;2.63;;
67712;SDS011;67640;55.784;49.138;2023-02-26T07:27:11;7.62;;;2.33;;
67712;SDS011;67640;55.784;49.138;2023-02-26T07:32:16;6.92;;;2.50;;
67712;SDS011;67640;55.784;49.138;2023-02-26T07:37:35;14.45;;;3.08;;
67712;SDS011;67640;55.784;49.138;2023-02-26T07:42:54;6.22;;;2.10;;
67712;SDS011;67640;55.784;49.138;2023-02-26T07:47:59;7.10;;;2.50;;
67712;SDS011;67640;55.784;49.138;2023-02-26T07:53:14;12.95;;;4.92;;
67712;SDS011;67640;55.784;49.138;2023-02-26T07:58:33;8.00;;;2.42;;
67712;SDS011;67640;55.784;49.138;2023-02-26T08:03:54;9.03;;;3.03;;
67712;SDS011;67640;55.784;49.138;2023-02-26T08:09:00;9.40;;;2.67;;
67712;SDS011;67640;55.784;49.138;2023-02-26T08:14:19;11.05;;;3.30;;
67712;SDS011;67640;55.784;49.138;2023-02-26T08:19:51;10.03;;;3.30;;
67712;SDS011;67640;55.784;49.138;2023-02-26T08:24:56;11.53;;;3.62;;
67712;SDS011;67640;55.784;49.138;2023-02-26T08:30:02;12.07;;;3.72;;
67712;SDS011;67640;55.784;49.138;2023-02-26T08:35:22;9.77;;;3.40;;
67712;SDS011;67640;55.784;49.138;2023-02-26T08:40:42;14.23;;;3.72;;
67712;SDS011;67640;55.784;49.138;2023-02-26T08:46:01;15.15;;;4.25;;
67712;SDS011;67640;55.784;49.138;2023-02-26T08:51:06;17.60;;;4.00;;
67712;SDS011;67640;55.784;49.138;2023-02-26T08:56:24;10.58;;;3.77;;
67712;SDS011;67640;55.784;49.138;2023-02-26T09:01:29;11.18;;;4.22;;
67712;SDS011;67640;55.784;49.138;2023-02-26T09:06:49;25.03;;;9.03;;
67712;SDS011;67640;55.784;49.138;2023-02-26T09:11:55;16.27;;;4.30;;
67712;SDS011;67640;55.784;49.138;2023-02-26T09:17:14;16.97;;;4.70;;
67712;SDS011;67640;55.784;49.138;2023-02-26T09:22:20;12.88;;;3.98;;
67712;SDS011;67640;55.784;49.138;2023-02-26T09:27:26;16.00;;;4.53;;
67712;SDS011;67640;55.784;49.138;2023-02-26T09:32:41;12.30;;;4.20;;
67712;SDS011;67640;55.784;49.138;2023-02-26T09:37:56;13.70;;;3.60;;
67712;SDS011;67640;55.784;49.138;2023-02-26T09:48:50;13.43;;;3.65;;
67712;SDS011;67640;55.784;49.138;2023-02-26T09:59:48;15.93;;;3.87;;
67712;SDS011;67640;55.784;49.138;2023-02-26T10:15:52;16.95;;;3.75;;
67712;SDS011;67640;55.784;49.138;2023-02-26T10:26:21;17.32;;;3.55;;
67712;SDS011;67640;55.784;49.138;2023-02-26T10:53:15;9.77;;;2.70;;
67712;SDS011;67640;55.784;49.138;2023-02-26T10:58:32;15.67;;;3.03;;
67712;SDS011;67640;55.784;49.138;2023-02-26T11:03:38;9.78;;;1.77;;
67712;SDS011;67640;55.784;49.138;2023-02-26T11:08:58;10.93;;;2.17;;
67712;SDS011;67640;55.784;49.138;2023-02-26T11:14:18;9.88;;;2.08;;
67712;SDS011;67640;55.784;49.138;2023-02-26T11:19:38;7.17;;;2.20;;
67712;SDS011;67640;55.784;49.138;2023-02-26T11:24:57;17.40;;;3.10;;
67712;SDS011;67640;55.784;49.138;2023-02-26T11:35:29;11.30;;;2.77;;
67712;SDS011;67640;55.784;49.138;2023-02-26T11:40:45;10.08;;;2.77;;
67712;SDS011;67640;55.784;49.138;2023-02-26T11:46:04;12.20;;;3.10;;
67712;SDS011;67640;55.784;49.138;2023-02-26T11:51:24;8.93;;;2.27;;
67712;SDS011;67640;55.784;49.138;2023-02-26T11:56:44;15.25;;;3.50;;
67712;SDS011;67640;55.784;49.138;2023-02-26T12:07:24;20.82;;;4.37;;
67712;SDS011;67640;55.784;49.138;2023-02-26T12:12:47;17.02;;;4.03;;
67712;SDS011;67640;55.784;49.138;2023-02-26T12:29:12;17.67;;;5.00;;
67712;SDS011;67640;55.784;49.138;2023-02-26T12:51:17;15.85;;;4.65;;
67712;SDS011;67640;55.784;49.138;2023-02-26T13:18:48;16.93;;;3.73;;
67712;SDS011;67640;55.784;49.138;2023-02-26T13:29:34;13.62;;;3.80;;
67712;SDS011;67640;55.784;49.138;2023-02-26T13:56:46;10.00;;;2.70;;
67712;SDS011;67640;55.784;49.138;2023-02-26T14:02:30;8.98;;;2.40;;
67712;SDS011;67640;55.784;49.138;2023-02-26T14:30:48;5.78;;;1.90;;
67712;SDS011;67640;55.784;49.138;2023-02-26T14:47:56;5.42;;;1.70;;
67712;SDS011;67640;55.784;49.138;2023-02-26T15:31:32;5.47;;;1.50;;
67712;SDS011;67640;55.784;49.138;2023-02-26T15:36:38;5.50;;;1.75;;
67712;SDS011;67640;55.784;49.138;2023-02-26T15:41:57;4.28;;;1.42;;
67712;SDS011;67640;55.784;49.138;2023-02-26T15:47:02;4.50;;;1.40;;
67712;SDS011;67640;55.784;49.138;2023-02-26T15:52:23;4.05;;;1.22;;
67712;SDS011;67640;55.784;49.138;2023-02-26T15:57:43;4.70;;;1.50;;
67712;SDS011;67640;55.784;49.138;2023-02-26T16:02:48;3.27;;;1.20;;
67712;SDS011;67640;55.784;49.138;2023-02-26T16:08:09;4.58;;;1.62;;
67712;SDS011;67640;55.784;49.138;2023-02-26T16:18:52;7.43;;;1.27;;
67712;SDS011;67640;55.784;49.138;2023-02-26T16:23:58;4.67;;;1.57;;
67712;SDS011;67640;55.784;49.138;2023-02-26T16:29:30;5.17;;;1.22;;
67712;SDS011;67640;55.784;49.138;2023-02-26T16:45:55;4.22;;;1.35;;
67712;SDS011;67640;55.784;49.138;2023-02-26T16:51:15;3.53;;;1.13;;
67712;SDS011;67640;55.784;49.138;2023-02-26T16:56:37;4.30;;;1.25;;
67712;SDS011;67640;55.784;49.138;2023-02-26T17:18:04;5.08;;;1.72;;
67712;SDS011;67640;55.784;49.138;2023-02-26T17:23:10;5.25;;;1.72;;
67712;SDS011;67640;55.784;49.138;2023-02-26T17:28:31;4.78;;;1.80;;
67712;SDS011;67640;55.784;49.138;2023-02-26T17:39:19;5.30;;;1.70;;
67712;SDS011;67640;55.784;49.138;2023-02-26T17:44:24;5.47;;;2.25;;
67712;SDS011;67640;55.784;49.138;2023-02-26T17:49:31;5.87;;;1.80;;
67712;SDS011;67640;55.784;49.138;2023-02-26T17:54:49;4.17;;;1.83;;
67712;SDS011;67640;55.784;49.138;2023-02-26T17:59:54;4.55;;;1.90;;
67712;SDS011;67640;55.784;49.138;2023-02-26T18:05:00;4.80;;;2.10;;
67712;SDS011;67640;55.784;49.138;2023-02-26T18:10:22;5.78;;;2.00;;
67712;SDS011;67640;55.784;49.138;2023-02-26T18:15:40;5.53;;;2.17;;
67712;SDS011;67640;55.784;49.138;2023-02-26T18:20:58;7.08;;;2.10;;
67712;SDS011;67640;55.784;49.138;2023-02-26T18:26:04;5.93;;;2.20;;
67712;SDS011;67640;55.784;49.138;2023-02-26T18:31:23;5.62;;;2.30;;
67712;SDS011;67640;55.784;49.138;2023-02-26T18:36:39;7.73;;;2.47;;
67712;SDS011;67640;55.784;49.138;2023-02-26T18:41:45;7.55;;;2.80;;
67712;SDS011;67640;55.784;49.138;2023-02-26T18:47:04;9.00;;;2.70;;
67712;SDS011;67640;55.784;49.138;2023-02-26T18:52:09;5.10;;;2.07;;
67712;SDS011;67640;55.784;49.138;2023-02-26T18:57:14;6.85;;;2.85;;
67712;SDS011;67640;55.784;49.138;2023-02-26T19:02:33;5.70;;;2.63;;
67712;SDS011;67640;55.784;49.138;2023-02-26T19:07:39;5.80;;;2.70;;
67712;SDS011;67640;55.784;49.138;2023-02-26T19:12:57;5.45;;;2.37;;
67712;SDS011;67640;55.784;49.138;2023-02-26T19:18:02;6.12;;;2.50;;
67712;SDS011;67640;55.784;49.138;2023-02-26T19:23:21;5.83;;;2.50;;
67712;SDS011;67640;55.784;49.138;2023-02-26T19:28:40;8.05;;;2.55;;
67712;SDS011;67640;55.784;49.138;2023-02-26T19:33:59;7.83;;;3.60;;
67712;SDS011;67640;55.784;49.138;2023-02-26T19:39:18;8.30;;;2.60;;
67712;SDS011;67640;55.784;49.138;2023-02-26T19:44:24;11.93;;;3.37;;
67712;SDS011;67640;55.784;49.138;2023-02-26T19:50:01;9.03;;;3.53;;
67712;SDS011;67640;55.784;49.138;2023-02-26T19:55:07;7.40;;;2.87;;
67712;SDS011;67640;55.784;49.138;2023-02-26T20:00:13;8.40;;;3.72;;
67712;SDS011;67640;55.784;49.138;2023-02-26T20:05:34;9.23;;;3.10;;
67712;SDS011;67640;55.784;49.138;2023-02-26T20:10:53;5.78;;;2.47;;
67712;SDS011;67640;55.784;49.138;2023-02-26T20:16:12;4.87;;;2.10;;
67712;SDS011;67640;55.784;49.138;2023-02-26T20:21:27;7.12;;;2.27;;
67712;SDS011;67640;55.784;49.138;2023-02-26T20:26:32;6.22;;;2.25;;
67712;SDS011;67640;55.784;49.138;2023-02-26T20:31:37;8.43;;;2.40;;
67712;SDS011;67640;55.784;49.138;2023-02-26T20:36:55;4.53;;;1.92;;
67712;SDS011;67640;55.784;49.138;2023-02-26T20:42:00;4.92;;;2.08;;
67712;SDS011;67640;55.784;49.138;2023-02-26T20:47:05;4.60;;;1.90;;
67712;SDS011;67640;55.784;49.138;2023-02-26T20:52:42;6.13;;;2.10;;
67712;SDS011;67640;55.784;49.138;2023-02-26T20:57:46;7.10;;;2.65;;
67712;SDS011;67640;55.784;49.138;2023-02-26T21:03:05;16.97;;;6.83;;
67712;SDS011;67640;55.784;49.138;2023-02-26T21:08:10;14.60;;;5.87;;
67712;SDS011;67640;55.784;49.138;2023-02-26T21:13:29;9.53;;;3.60;;
67712;SDS011;67640;55.784;49.138;2023-02-26T21:18:33;9.63;;;2.53;;
67712;SDS011;67640;55.784;49.138;2023-02-26T21:23:50;9.53;;;2.92;;
67712;SDS011;67640;55.784;49.138;2023-02-26T21:28:55;8.13;;;2.87;;
67712;SDS011;67640;55.784;49.138;2023-02-26T21:34:14;7.70;;;2.50;;
67712;SDS011;67640;55.784;49.138;2023-02-26T21:39:34;8.10;;;2.30;;
67712;SDS011;67640;55.784;49.138;2023-02-26T21:44:53;8.08;;;2.80;;
67712;SDS011;67640;55.784;49.138;2023-02-26T21:50:12;9.73;;;3.47;;
67712;SDS011;67640;55.784;49.138;2023-02-26T21:55:17;7.72;;;2.58;;
67712;SDS011;67640;55.784;49.138;2023-02-26T22:00:23;5.43;;;2.40;;
67712;SDS011;67640;55.784;49.138;2023-02-26T22:05:29;7.50;;;2.70;;
67712;SDS011;67640;55.784;49.138;2023-02-26T22:10:48;5.97;;;2.30;;
67712;SDS011;67640;55.784;49.138;2023-02-26T22:16:19;6.40;;;2.80;;
67712;SDS011;67640;55.784;49.138;2023-02-26T22:21:25;8.55;;;3.12;;
67712;SDS011;67640;55.784;49.138;2023-02-26T22:26:44;8.98;;;2.83;;
67712;SDS011;67640;55.784;49.138;2023-02-26T22:32:03;8.03;;;3.10;;
67712;SDS011;67640;55.784;49.138;2023-02-26T22:37:22;7.08;;;2.95;;
67712;SDS011;67640;55.784;49.138;2023-02-26T22:42:42;7.80;;;2.97;;
67712;SDS011;67640;55.784;49.138;2023-02-26T22:47:47;6.83;;;2.77;;
67712;SDS011;67640;55.784;49.138;2023-02-26T22:52:52;8.65;;;3.00;;
67712;SDS011;67640;55.784;49.138;2023-02-26T22:58:09;7.28;;;2.87;;
67712;SDS011;67640;55.784;49.138;2023-02-26T23:03:14;6.08;;;2.67;;
67712;SDS011;67640;55.784;49.138;2023-02-26T23:08:20;6.78;;;2.85;;
67712;SDS011;67640;55.784;49.138;2023-02-26T23:13:26;7.80;;;3.07;;
67712;SDS011;67640;55.784;49.138;2023-02-26T23:18:46;7.00;;;3.20;;
67712;SDS011;67640;55.784;49.138;2023-02-26T23:24:05;6.47;;;2.87;;
67712;SDS011;67640;55.784;49.138;2023-02-26T23:29:24;7.15;;;3.02;;
67712;SDS011;67640;55.784;49.138;2023-02-26T23:34:29;7.22;;;2.90;;
67712;SDS011;67640;55.784;49.138;2023-02-26T23:39:34;7.80;;;3.13;;
67712;SDS011;67640;55.784;49.138;2023-02-26T23:44:40;9.53;;;3.80;;
67712;SDS011;67640;55.784;49.138;2023-02-26T23:49:57;9.25;;;3.55;;
67712;SDS011;67640;55.784;49.138;2023-02-26T23:55:02;7.87;;;3.17;;
